createdAt,value
2017-10-22T16:00:56.563Z,54.20
2017-10-22T16:03:24.845Z,56.90
2017-10-22T16:05:53.107Z,57.40
2017-10-22T16:08:21.382Z,58.30
2017-10-22T16:10:49.636Z,58.80
2017-10-22T16:13:17.133Z,58.70
2017-10-22T16:15:44.648Z,59.70
2017-10-22T16:18:12.137Z,59.50
2017-10-22T16:20:40.399Z,60.20
2017-10-22T16:23:07.888Z,60.20
2017-10-22T16:25:35.384Z,60.50
2017-10-22T16:28:02.900Z,60.50
2017-10-22T16:30:30.388Z,60.40
2017-10-22T16:32:57.890Z,60.60
2017-10-22T16:35:25.460Z,60.70
2017-10-22T16:37:53.721Z,60.70
2017-10-22T16:40:21.228Z,60.70
2017-10-22T16:42:48.756Z,60.90
2017-10-22T16:45:17.011Z,60.70
2017-10-22T16:47:44.595Z,60.60
2017-10-22T16:50:12.851Z,61.10
2017-10-22T16:52:40.324Z,61.10
2017-10-22T16:55:08.568Z,61.30
2017-10-22T16:57:36.047Z,61.30
2017-10-22T17:00:03.544Z,61.30
2017-10-22T17:02:31.063Z,61.60
2017-10-22T17:04:58.546Z,61.70
2017-10-22T17:07:26.055Z,61.80
2017-10-22T17:09:53.780Z,62.10
2017-10-22T17:12:21.283Z,62.40
2017-10-22T17:14:48.952Z,62.50
2017-10-22T17:17:16.560Z,62.90
2017-10-22T17:19:44.050Z,63.20
2017-10-22T17:22:11.577Z,63.50
2017-10-22T17:24:39.095Z,63.80
2017-10-22T17:27:06.640Z,64.00
2017-10-22T17:29:35.626Z,64.10
2017-10-22T17:32:03.231Z,64.00
2017-10-22T17:34:30.713Z,64.00
2017-10-22T17:36:58.195Z,64.10
2017-10-22T17:39:25.795Z,64.20
2017-10-22T17:41:54.106Z,64.50
2017-10-22T17:44:21.652Z,64.50
2017-10-22T17:46:49.164Z,64.40
2017-10-22T17:49:16.648Z,64.50
2017-10-22T17:51:44.937Z,64.60
2017-10-22T17:54:12.436Z,64.60
2017-10-22T17:56:41.060Z,64.50
2017-10-22T17:59:09.335Z,64.60
2017-10-22T18:01:37.571Z,64.40
2017-10-22T18:04:05.075Z,64.40
2017-10-22T18:06:33.341Z,64.60
2017-10-22T18:09:01.596Z,64.20
2017-10-22T18:11:31.205Z,64.60
2017-10-22T18:13:58.833Z,64.50
2017-10-22T18:16:26.461Z,64.40
2017-10-22T18:18:54.712Z,64.40
2017-10-22T18:21:22.193Z,64.40
2017-10-22T18:23:50.447Z,64.70
2017-10-22T18:26:18.716Z,64.80
2017-10-22T18:28:46.284Z,64.60
2017-10-22T18:31:14.552Z,65.00
2017-10-22T18:33:42.030Z,64.80
2017-10-22T18:36:10.300Z,65.00
2017-10-22T18:38:38.563Z,65.00
2017-10-22T18:41:06.938Z,64.90
2017-10-22T18:43:34.424Z,64.60
2017-10-22T18:46:02.689Z,64.70
2017-10-22T18:48:31.139Z,64.30
2017-10-22T18:50:59.425Z,64.30
2017-10-22T18:53:27.947Z,64.30
2017-10-22T18:55:55.452Z,64.30
2017-10-22T18:58:23.565Z,64.30
2017-10-22T19:00:52.274Z,64.40
2017-10-22T19:03:19.821Z,64.40
2017-10-22T19:05:47.322Z,64.70
2017-10-22T19:08:14.788Z,64.90
2017-10-22T19:10:43.091Z,65.20
2017-10-22T19:13:11.342Z,65.40
2017-10-22T19:15:39.461Z,65.40
2017-10-22T19:18:09.913Z,65.50
2017-10-22T19:20:37.387Z,65.80
2017-10-22T19:23:04.864Z,65.90
2017-10-22T19:25:32.381Z,65.90
2017-10-22T19:28:00.347Z,66.00
2017-10-22T19:30:27.887Z,66.20
2017-10-22T19:32:55.450Z,66.20
2017-10-22T19:35:22.934Z,66.20
2017-10-22T19:37:50.608Z,65.90
2017-10-22T19:40:18.495Z,66.00
2017-10-22T19:42:46.514Z,66.00
2017-10-22T19:45:15.304Z,66.10
2017-10-22T19:47:44.115Z,66.40
2017-10-22T19:50:12.058Z,66.30
2017-10-22T19:52:39.583Z,66.20
2017-10-22T19:55:07.851Z,66.80
2017-10-22T19:57:37.141Z,66.70
2017-10-22T20:00:05.485Z,66.70
2017-10-22T20:02:32.991Z,66.70
2017-10-22T20:05:01.270Z,66.70
2017-10-22T20:07:29.540Z,66.90
2017-10-22T20:09:57.141Z,66.70
2017-10-22T20:12:24.661Z,67.00
2017-10-22T20:14:53.048Z,67.30
2017-10-22T20:17:21.370Z,67.30
2017-10-22T20:19:48.881Z,67.20
2017-10-22T20:22:17.142Z,67.70
2017-10-22T20:24:44.651Z,67.70
2017-10-22T20:27:12.142Z,67.80
2017-10-22T20:29:39.632Z,68.00
2017-10-22T20:32:07.922Z,68.00
2017-10-22T20:34:35.468Z,68.00
2017-10-22T20:37:03.734Z,68.40
2017-10-22T20:39:32.001Z,69.30
2017-10-22T20:41:59.579Z,68.50
2017-10-22T20:44:27.852Z,68.70
2017-10-22T20:46:56.135Z,69.00
2017-10-22T20:49:24.374Z,69.30
2017-10-22T20:51:51.905Z,69.20
2017-10-22T20:54:19.436Z,69.30
2017-10-22T20:56:46.933Z,69.30
2017-10-22T20:59:14.417Z,69.30
2017-10-22T21:01:42.691Z,69.40
2017-10-22T21:04:10.179Z,69.60
2017-10-22T21:06:38.428Z,70.00
2017-10-22T21:09:05.926Z,70.00
2017-10-22T21:11:33.472Z,70.40
2017-10-22T21:14:01.738Z,71.90
2017-10-22T21:16:30.035Z,71.90
2017-10-22T21:18:57.527Z,72.40
2017-10-22T21:21:25.027Z,71.90
2017-10-22T21:23:53.428Z,72.30
2017-10-22T21:26:20.899Z,72.20
2017-10-22T21:28:48.383Z,72.00
2017-10-22T21:31:15.866Z,72.00
2017-10-22T21:33:43.377Z,72.10
2017-10-22T21:36:11.006Z,72.10
2017-10-22T21:38:39.250Z,72.10
2017-10-22T21:41:06.759Z,72.10
2017-10-22T21:43:34.255Z,72.10
2017-10-22T21:46:01.750Z,72.30
2017-10-22T21:48:30.008Z,72.60
2017-10-22T21:50:57.485Z,72.60
2017-10-22T21:53:26.184Z,73.80
2017-10-22T21:55:53.666Z,73.70
2017-10-22T21:58:21.163Z,74.00
2017-10-22T22:00:48.653Z,74.50
2017-10-22T22:03:16.204Z,75.10
2017-10-22T22:05:44.456Z,74.90
2017-10-22T22:08:11.949Z,74.80
2017-10-22T22:10:39.494Z,75.50
2017-10-22T22:13:09.067Z,75.30
2017-10-22T22:15:36.558Z,75.20
2017-10-22T22:18:04.815Z,76.30
2017-10-22T22:20:32.316Z,76.20
2017-10-22T22:22:59.836Z,76.70
2017-10-22T22:25:27.311Z,78.20
2017-10-22T22:27:55.594Z,78.80
2017-10-22T22:30:23.093Z,78.70
2017-10-22T22:32:50.569Z,78.80
2017-10-22T22:35:19.001Z,79.20
2017-10-22T22:37:46.496Z,79.20
2017-10-22T22:40:13.984Z,79.70
2017-10-22T22:42:42.235Z,81.00
2017-10-22T22:45:09.764Z,80.90
2017-10-22T22:47:37.233Z,81.20
2017-10-22T22:50:04.720Z,81.30
2017-10-22T22:52:32.302Z,81.60
2017-10-22T22:55:00.564Z,81.90
2017-10-22T22:57:28.047Z,81.90
2017-10-22T22:59:55.523Z,82.60
2017-10-22T23:02:23.004Z,82.50
2017-10-22T23:04:50.615Z,82.70
2017-10-22T23:07:18.865Z,82.90
2017-10-22T23:09:46.427Z,82.90
2017-10-22T23:12:13.934Z,83.20
2017-10-22T23:14:41.426Z,83.30
2017-10-22T23:17:08.920Z,83.70
2017-10-22T23:19:37.848Z,84.00
2017-10-22T23:22:05.328Z,83.90
2017-10-22T23:24:32.825Z,84.40
2017-10-22T23:27:01.087Z,84.70
2017-10-22T23:29:29.376Z,84.90
2017-10-22T23:31:57.628Z,84.90
2017-10-22T23:34:25.891Z,85.10
2017-10-22T23:36:53.372Z,85.10
2017-10-22T23:39:21.621Z,84.70
2017-10-22T23:41:49.131Z,84.90
2017-10-22T23:44:16.680Z,85.20
2017-10-22T23:46:44.920Z,85.40
2017-10-22T23:49:12.428Z,85.30
2017-10-22T23:51:39.902Z,85.30
2017-10-22T23:54:07.446Z,85.30
2017-10-22T23:56:34.985Z,85.10
2017-10-22T23:59:03.237Z,85.40
